createdAt,value
2017-12-08T00:02:10.530Z,8.52
2017-12-08T00:04:38.518Z,8.49
2017-12-08T00:07:06.174Z,8.47
2017-12-08T00:09:33.759Z,8.52
2017-12-08T00:12:01.387Z,8.64
2017-12-08T00:14:28.955Z,8.66
2017-12-08T00:16:56.545Z,8.55
2017-12-08T00:19:24.172Z,8.46
2017-12-08T00:21:51.827Z,8.44
2017-12-08T00:24:19.496Z,8.42
2017-12-08T00:26:47.160Z,8.37
2017-12-08T00:29:14.836Z,8.35
2017-12-08T00:31:42.896Z,8.30
2017-12-08T00:34:10.472Z,8.30
2017-12-08T00:36:38.050Z,8.28
2017-12-08T00:39:05.683Z,8.23
2017-12-08T00:41:33.267Z,8.25
2017-12-08T00:44:00.904Z,8.26
2017-12-08T00:46:28.577Z,8.27
2017-12-08T00:48:56.241Z,8.27
2017-12-08T00:51:23.899Z,8.28
2017-12-08T00:53:51.471Z,8.21
2017-12-08T00:56:19.048Z,8.16
2017-12-08T00:58:46.684Z,8.15
2017-12-08T01:01:14.351Z,8.11
2017-12-08T01:03:42.018Z,8.15
2017-12-08T01:06:09.594Z,8.22
2017-12-08T01:08:37.183Z,8.28
2017-12-08T01:11:04.779Z,8.19
2017-12-08T01:13:32.358Z,8.12
2017-12-08T01:15:59.939Z,8.08
2017-12-08T01:18:27.620Z,8.10
2017-12-08T01:20:55.255Z,8.09
2017-12-08T01:23:22.919Z,8.05
2017-12-08T01:25:50.580Z,8.16
2017-12-08T01:28:18.173Z,8.27
2017-12-08T01:30:45.752Z,8.29
2017-12-08T01:33:13.367Z,8.21
2017-12-08T01:35:41.032Z,8.14
2017-12-08T01:38:08.615Z,8.12
2017-12-08T01:40:36.186Z,8.06
2017-12-08T01:43:03.783Z,8.00
2017-12-08T01:45:31.352Z,7.91
2017-12-08T01:47:59.128Z,7.90
2017-12-08T01:50:26.706Z,7.93
2017-12-08T01:52:54.278Z,7.99
2017-12-08T01:55:21.898Z,8.08
2017-12-08T01:57:49.480Z,8.06
2017-12-08T02:00:17.064Z,8.08
2017-12-08T02:02:44.702Z,8.11
2017-12-08T02:05:12.275Z,8.10
2017-12-08T02:07:39.846Z,8.03
2017-12-08T02:10:07.743Z,7.97
2017-12-08T02:12:35.380Z,7.97
2017-12-08T02:15:02.968Z,8.00
2017-12-08T02:17:30.584Z,8.00
2017-12-08T02:19:58.166Z,8.05
2017-12-08T02:22:25.823Z,8.00
2017-12-08T02:24:53.487Z,8.01
2017-12-08T02:27:21.051Z,7.97
2017-12-08T02:29:48.634Z,7.88
2017-12-08T02:32:16.279Z,7.77
2017-12-08T02:34:43.936Z,7.72
2017-12-08T02:37:11.508Z,7.74
2017-12-08T02:39:39.159Z,7.74
2017-12-08T02:42:06.742Z,7.74
2017-12-08T02:44:34.315Z,7.65
2017-12-08T02:47:01.943Z,7.58
2017-12-08T02:49:29.615Z,7.52
2017-12-08T02:51:57.273Z,7.49
2017-12-08T02:54:24.852Z,7.46
2017-12-08T02:56:52.503Z,7.41
2017-12-08T02:59:20.076Z,7.44
2017-12-08T03:01:47.659Z,7.43
2017-12-08T03:04:15.635Z,7.47
2017-12-08T03:06:43.268Z,7.47
2017-12-08T03:09:10.927Z,7.47
2017-12-08T03:11:38.587Z,7.47
2017-12-08T03:14:06.164Z,7.47
2017-12-08T03:16:33.799Z,7.45
2017-12-08T03:19:01.371Z,7.45
2017-12-08T03:21:29.046Z,7.51
2017-12-08T03:23:56.628Z,7.54
2017-12-08T03:26:24.268Z,7.60
2017-12-08T03:28:51.932Z,7.61
2017-12-08T03:31:19.598Z,7.59
2017-12-08T03:33:47.175Z,7.55
2017-12-08T03:36:14.742Z,7.56
2017-12-08T03:38:42.384Z,7.58
2017-12-08T03:41:10.043Z,7.61
2017-12-08T03:43:37.703Z,7.63
2017-12-08T03:46:05.356Z,7.65
2017-12-08T03:48:33.036Z,7.45
2017-12-08T03:51:00.602Z,7.56
2017-12-08T03:53:28.189Z,7.55
2017-12-08T03:55:55.823Z,7.59
2017-12-08T03:58:23.484Z,7.68
2017-12-08T04:00:51.055Z,7.69
2017-12-08T04:03:18.706Z,7.64
2017-12-08T04:05:46.283Z,7.67
2017-12-08T04:08:13.873Z,7.59
2017-12-08T04:10:41.507Z,7.41
2017-12-08T04:13:09.167Z,7.10
2017-12-08T04:15:36.739Z,6.72
2017-12-08T04:18:04.408Z,6.44
2017-12-08T04:20:31.976Z,6.30
2017-12-08T04:22:59.616Z,6.27
2017-12-08T04:25:27.282Z,6.26
2017-12-08T04:27:54.944Z,6.27
2017-12-08T04:30:22.612Z,6.28
2017-12-08T04:32:50.203Z,6.31
2017-12-08T04:35:17.826Z,6.34
2017-12-08T04:37:45.408Z,6.33
2017-12-08T04:40:12.991Z,6.27
2017-12-08T04:42:40.624Z,6.23
2017-12-08T04:45:08.289Z,6.23
2017-12-08T04:47:35.868Z,6.22
2017-12-08T04:50:03.512Z,6.15
2017-12-08T04:52:31.171Z,6.02
2017-12-08T04:54:58.760Z,6.14
2017-12-08T04:57:26.331Z,6.12
2017-12-08T04:59:53.971Z,6.09
2017-12-08T05:02:21.548Z,6.10
2017-12-08T05:04:49.175Z,6.08
2017-12-08T05:07:16.744Z,6.04
2017-12-08T05:09:44.324Z,6.00
2017-12-08T05:12:11.971Z,6.01
2017-12-08T05:14:39.548Z,5.98
2017-12-08T05:17:07.116Z,5.98
2017-12-08T05:19:34.768Z,5.97
2017-12-08T05:22:02.398Z,6.00
2017-12-08T05:24:30.079Z,5.98
2017-12-08T05:26:57.752Z,6.03
2017-12-08T05:29:25.327Z,5.92
2017-12-08T05:31:52.906Z,5.91
2017-12-08T05:34:20.536Z,5.89
2017-12-08T05:36:48.121Z,5.77
2017-12-08T05:39:15.760Z,5.64
2017-12-08T05:41:43.424Z,5.53
2017-12-08T05:44:11.087Z,5.47
2017-12-08T05:46:38.671Z,5.45
2017-12-08T05:49:06.235Z,5.33
2017-12-08T05:51:33.874Z,5.31
2017-12-08T05:54:01.537Z,5.30
2017-12-08T05:56:29.203Z,5.31
2017-12-08T05:58:56.868Z,5.38
2017-12-08T06:01:24.447Z,5.35
2017-12-08T06:03:52.091Z,5.36
2017-12-08T06:06:19.761Z,5.41
2017-12-08T06:08:47.336Z,5.38
2017-12-08T06:11:14.984Z,5.34
2017-12-08T06:13:42.551Z,5.35
2017-12-08T06:16:10.131Z,5.30
2017-12-08T06:18:37.750Z,5.25
2017-12-08T06:21:05.322Z,5.18
2017-12-08T06:23:32.996Z,5.15
2017-12-08T06:26:00.655Z,5.06
2017-12-08T06:28:28.228Z,5.01
2017-12-08T06:30:55.893Z,4.93
2017-12-08T06:33:23.463Z,4.90
2017-12-08T06:35:51.042Z,4.87
2017-12-08T06:38:19.489Z,4.87
2017-12-08T06:40:47.151Z,4.81
2017-12-08T06:43:14.728Z,4.70
2017-12-08T06:45:42.379Z,4.60
2017-12-08T06:48:10.035Z,4.47
2017-12-08T06:50:37.603Z,4.30
2017-12-08T06:53:05.265Z,4.28
2017-12-08T06:55:32.935Z,4.31
2017-12-08T06:58:00.516Z,4.33
2017-12-08T07:00:28.091Z,4.41
2017-12-08T07:02:55.723Z,4.42
2017-12-08T07:05:23.432Z,4.48
2017-12-08T07:07:51.041Z,4.53
2017-12-08T07:10:18.664Z,4.59
2017-12-08T07:12:46.248Z,4.57
2017-12-08T07:15:13.821Z,4.57
2017-12-08T07:17:41.398Z,4.55
2017-12-08T07:20:09.055Z,4.55
2017-12-08T07:22:36.645Z,4.61
2017-12-08T07:25:04.215Z,4.65
2017-12-08T07:27:31.828Z,4.70
2017-12-08T07:29:59.515Z,4.75
2017-12-08T07:32:27.172Z,4.79
2017-12-08T07:34:54.743Z,4.76
2017-12-08T07:37:22.399Z,4.60
2017-12-08T07:39:49.984Z,4.61
2017-12-08T07:42:17.630Z,4.68
2017-12-08T07:44:45.208Z,4.60
2017-12-08T07:47:12.789Z,4.52
2017-12-08T07:49:40.408Z,4.48
2017-12-08T07:52:07.985Z,4.43
2017-12-08T07:54:35.563Z,4.39
2017-12-08T07:57:03.196Z,4.30
2017-12-08T07:59:30.860Z,4.25
2017-12-08T08:01:58.435Z,4.21
2017-12-08T08:04:26.020Z,4.02
2017-12-08T08:06:53.644Z,4.06
2017-12-08T08:09:21.224Z,3.99
2017-12-08T08:11:48.867Z,4.05
2017-12-08T08:14:16.536Z,4.12
2017-12-08T08:16:44.103Z,4.10
2017-12-08T08:19:11.687Z,4.11
2017-12-08T08:21:39.320Z,4.07
2017-12-08T08:24:06.985Z,4.00
2017-12-08T08:26:34.655Z,3.87
2017-12-08T08:29:02.317Z,3.94
2017-12-08T08:31:29.974Z,3.90
2017-12-08T08:33:57.572Z,3.88
2017-12-08T08:36:25.144Z,3.91
2017-12-08T08:38:52.712Z,3.99
2017-12-08T08:41:20.295Z,4.09
2017-12-08T08:43:47.887Z,4.20
2017-12-08T08:46:15.548Z,4.24
2017-12-08T08:48:43.219Z,4.23
2017-12-08T08:51:10.804Z,4.29
2017-12-08T08:53:38.443Z,4.35
2017-12-08T08:56:06.176Z,4.36
2017-12-08T08:58:33.756Z,4.39
2017-12-08T09:01:01.339Z,4.43
2017-12-08T09:03:28.916Z,4.50
2017-12-08T09:05:56.561Z,4.55
2017-12-08T09:08:24.220Z,4.51
2017-12-08T09:10:51.805Z,4.52
2017-12-08T09:13:19.377Z,4.47
2017-12-08T09:15:47.003Z,4.40
2017-12-08T09:18:14.570Z,4.43
2017-12-08T09:20:42.155Z,4.46
2017-12-08T09:23:09.728Z,4.49
2017-12-08T09:25:37.322Z,4.51
2017-12-08T09:28:04.896Z,4.46
2017-12-08T09:30:32.566Z,4.50
2017-12-08T09:33:00.250Z,4.49
2017-12-08T09:35:27.911Z,4.54
2017-12-08T09:37:55.604Z,4.52
2017-12-08T09:40:23.192Z,4.55
2017-12-08T09:42:50.768Z,4.56
2017-12-08T09:45:18.469Z,4.58
2017-12-08T09:47:46.047Z,4.57
2017-12-08T09:50:13.684Z,4.55
2017-12-08T09:52:41.264Z,4.57
2017-12-08T09:55:08.906Z,4.58
2017-12-08T09:57:36.497Z,4.56
2017-12-08T10:00:04.068Z,4.52
2017-12-08T10:02:31.699Z,4.49
2017-12-08T10:04:59.271Z,4.37
2017-12-08T10:07:26.857Z,4.24
2017-12-08T10:09:54.485Z,4.23
2017-12-08T10:12:22.143Z,4.24
2017-12-08T10:14:49.711Z,4.19
2017-12-08T10:17:17.292Z,4.22
2017-12-08T10:19:44.931Z,4.20
2017-12-08T10:22:12.511Z,4.17
2017-12-08T10:24:40.081Z,4.19
2017-12-08T10:27:07.773Z,4.14
2017-12-08T10:29:35.383Z,4.12
2017-12-08T10:32:03.047Z,4.09
2017-12-08T10:34:30.611Z,4.03
2017-12-08T10:36:58.203Z,3.87
2017-12-08T10:39:25.838Z,3.93
2017-12-08T10:41:53.503Z,3.90
2017-12-08T10:44:21.083Z,3.94
2017-12-08T10:46:48.655Z,3.92
2017-12-08T10:49:16.287Z,3.90
2017-12-08T10:51:43.851Z,3.91
2017-12-08T10:54:11.436Z,3.99
2017-12-08T10:56:39.012Z,4.06
2017-12-08T10:59:06.595Z,4.03
2017-12-08T11:01:34.201Z,4.11
2017-12-08T11:04:01.810Z,4.07
2017-12-08T11:06:29.379Z,4.19
2017-12-08T11:08:56.977Z,4.23
2017-12-08T11:11:24.543Z,4.27
2017-12-08T11:13:52.129Z,4.36
2017-12-08T11:16:19.767Z,4.36
2017-12-08T11:18:47.449Z,4.39
2017-12-08T11:21:15.104Z,4.50
2017-12-08T11:23:42.689Z,4.50
2017-12-08T11:26:10.265Z,4.48
2017-12-08T11:28:37.887Z,4.45
2017-12-08T11:31:05.558Z,4.44
2017-12-08T11:33:33.212Z,4.47
2017-12-08T11:36:00.879Z,4.49
2017-12-08T11:38:28.539Z,4.49
2017-12-08T11:40:56.228Z,4.48
2017-12-08T11:43:23.796Z,4.50
2017-12-08T11:45:51.431Z,4.48
2017-12-08T11:48:18.995Z,4.54
2017-12-08T11:50:46.576Z,4.60
2017-12-08T11:53:14.224Z,4.61
2017-12-08T11:55:41.807Z,4.65
2017-12-08T11:58:09.445Z,4.68
2017-12-08T12:00:37.023Z,4.45
2017-12-08T12:03:04.596Z,4.54
2017-12-08T12:05:32.187Z,4.40
2017-12-08T12:07:59.764Z,4.32
2017-12-08T12:10:27.456Z,4.30
2017-12-08T12:15:28.299Z,4.37
2017-12-08T12:17:55.868Z,4.42
2017-12-08T12:20:23.442Z,4.33
2017-12-08T12:22:51.010Z,4.28
2017-12-08T12:25:18.659Z,4.23
2017-12-08T12:27:46.231Z,4.26
2017-12-08T12:30:13.883Z,4.29
2017-12-08T12:32:41.549Z,4.30
2017-12-08T12:35:09.135Z,4.31
2017-12-08T12:37:36.771Z,4.35
2017-12-08T12:40:04.451Z,4.36
2017-12-08T12:42:32.022Z,4.38
2017-12-08T12:44:59.664Z,4.48
2017-12-08T12:47:27.332Z,4.48
2017-12-08T12:49:54.983Z,4.51
2017-12-08T12:52:22.607Z,4.49
2017-12-08T12:54:50.215Z,4.49
2017-12-08T12:57:17.885Z,4.47
2017-12-08T12:59:45.475Z,4.45
2017-12-08T13:02:13.107Z,4.43
2017-12-08T13:04:40.680Z,4.36
2017-12-08T13:07:08.341Z,4.31
2017-12-08T13:09:36.006Z,4.35
2017-12-08T13:12:03.593Z,4.36
2017-12-08T13:14:31.169Z,4.40
2017-12-08T13:16:58.785Z,4.44
2017-12-08T13:19:26.370Z,4.44
2017-12-08T13:21:53.964Z,4.49
2017-12-08T13:24:21.535Z,4.51
2017-12-08T13:26:49.114Z,4.52
2017-12-08T13:29:16.688Z,4.48
2017-12-08T13:31:44.263Z,4.45
2017-12-08T13:34:11.921Z,4.37
2017-12-08T13:36:39.579Z,4.50
2017-12-08T13:39:07.244Z,4.47
2017-12-08T13:41:34.840Z,4.41
2017-12-08T13:44:02.421Z,4.36
2017-12-08T13:46:30.000Z,4.25
2017-12-08T13:48:57.586Z,4.17
2017-12-08T13:51:25.159Z,4.13
2017-12-08T13:54:04.483Z,4.14
2017-12-08T13:56:43.827Z,4.19
2017-12-08T13:59:11.491Z,4.23
2017-12-08T14:01:39.068Z,4.19
2017-12-08T14:04:06.719Z,4.19
2017-12-08T14:06:34.383Z,4.20
2017-12-08T14:09:01.972Z,4.19
2017-12-08T14:11:29.539Z,4.21
2017-12-08T14:13:57.123Z,4.20
2017-12-08T14:16:24.696Z,4.19
2017-12-08T14:18:52.279Z,4.24
2017-12-08T14:21:19.968Z,4.26
2017-12-08T14:23:47.623Z,4.27
2017-12-08T14:26:15.197Z,4.30
2017-12-08T14:28:42.843Z,4.28
2017-12-08T14:31:10.507Z,4.25
2017-12-08T14:33:38.083Z,4.19
2017-12-08T14:36:05.663Z,4.21
2017-12-08T14:38:33.306Z,4.24
2017-12-08T14:41:00.965Z,4.25
2017-12-08T14:43:28.626Z,4.20
2017-12-08T14:45:56.208Z,4.25
2017-12-08T14:48:23.774Z,4.25
2017-12-08T14:50:51.355Z,4.26
2017-12-08T14:53:18.928Z,4.84
2017-12-08T14:55:46.544Z,3.67
2017-12-08T14:58:14.111Z,2.82
2017-12-08T15:00:41.696Z,2.47
2017-12-08T15:03:09.329Z,2.25
2017-12-08T15:05:36.912Z,2.27
2017-12-08T15:08:04.494Z,2.21
2017-12-08T15:10:32.112Z,2.20
2017-12-08T15:12:59.783Z,2.28
2017-12-08T15:15:27.376Z,2.21
2017-12-08T15:17:54.954Z,2.28
2017-12-08T15:20:22.536Z,2.07
2017-12-08T15:22:50.108Z,2.15
2017-12-08T15:25:17.712Z,2.13
2017-12-08T15:27:45.352Z,2.09
2017-12-08T15:30:12.923Z,2.13
2017-12-08T15:32:40.508Z,2.08
2017-12-08T15:35:08.086Z,2.09
2017-12-08T15:37:35.711Z,2.08
2017-12-08T15:40:03.360Z,2.06
2017-12-08T15:42:30.943Z,2.06
2017-12-08T15:44:58.530Z,2.10
2017-12-08T15:47:26.143Z,2.15
2017-12-08T15:49:53.715Z,2.11
2017-12-08T15:52:21.308Z,2.08
2017-12-08T15:54:48.887Z,2.12
2017-12-08T15:57:16.479Z,2.15
2017-12-08T15:59:44.157Z,2.21
2017-12-08T16:02:11.872Z,2.29
2017-12-08T16:04:41.106Z,2.30
2017-12-08T16:07:08.788Z,2.39
2017-12-08T16:09:36.447Z,2.45
2017-12-08T16:12:04.124Z,2.43
2017-12-08T16:14:31.780Z,2.33
2017-12-08T16:16:59.364Z,2.30
2017-12-08T16:19:27.004Z,2.25
2017-12-08T16:21:54.664Z,2.21
2017-12-08T16:24:22.343Z,2.21
2017-12-08T16:26:49.996Z,2.22
2017-12-08T16:29:17.659Z,2.15
2017-12-08T16:31:45.239Z,2.18
2017-12-08T16:34:12.893Z,2.26
2017-12-08T16:36:40.548Z,2.33
2017-12-08T16:39:08.128Z,2.39
2017-12-08T16:41:35.777Z,2.29
2017-12-08T16:44:03.448Z,2.35
2017-12-08T16:46:31.024Z,2.43
2017-12-08T16:48:58.607Z,2.30
2017-12-08T16:51:26.184Z,2.15
2017-12-08T16:53:53.768Z,2.06
2017-12-08T16:56:21.341Z,2.10
2017-12-08T16:58:49.012Z,2.14
2017-12-08T17:01:16.675Z,2.14
2017-12-08T17:03:44.264Z,2.12
2017-12-08T17:06:11.835Z,2.05
2017-12-08T17:08:39.524Z,1.98
2017-12-08T17:11:07.128Z,1.89
2017-12-08T17:13:34.791Z,2.05
2017-12-08T17:16:02.375Z,2.05
2017-12-08T17:18:29.983Z,2.07
2017-12-08T17:20:57.620Z,2.11
2017-12-08T17:23:25.213Z,2.05
2017-12-08T17:25:52.851Z,2.04
2017-12-08T17:28:20.499Z,2.03
2017-12-08T17:30:48.127Z,2.09
2017-12-08T17:33:15.800Z,2.03
2017-12-08T17:35:43.396Z,2.08
2017-12-08T17:38:10.988Z,1.97
2017-12-08T17:40:38.592Z,2.07
2017-12-08T17:43:06.244Z,2.02
2017-12-08T17:45:33.845Z,2.03
2017-12-08T17:48:01.445Z,1.95
2017-12-08T17:50:29.057Z,1.91
2017-12-08T17:52:56.648Z,1.88
2017-12-08T17:55:24.250Z,1.82
2017-12-08T17:57:51.915Z,1.81
2017-12-08T18:00:19.507Z,1.75
2017-12-08T18:02:47.088Z,1.81
2017-12-08T18:05:14.703Z,1.83
2017-12-08T18:07:42.371Z,1.80
2017-12-08T18:10:09.967Z,1.82
2017-12-08T18:12:37.622Z,1.83
2017-12-08T18:15:05.281Z,1.81
2017-12-08T18:17:32.903Z,1.84
2017-12-08T18:20:00.507Z,1.86
2017-12-08T18:22:28.167Z,1.92
2017-12-08T18:24:55.748Z,1.92
2017-12-08T18:27:23.337Z,1.89
2017-12-08T18:29:50.940Z,1.87
2017-12-08T18:32:18.600Z,1.88
2017-12-08T18:34:46.182Z,1.96
2017-12-08T18:37:13.777Z,1.91
2017-12-08T18:39:41.369Z,1.89
2017-12-08T18:42:09.048Z,1.97
2017-12-08T18:44:36.719Z,1.97
2017-12-08T18:47:04.317Z,1.95
2017-12-08T18:49:31.908Z,1.92
2017-12-08T18:51:59.508Z,1.75
2017-12-08T18:54:27.083Z,1.96
2017-12-08T18:56:54.712Z,1.99
2017-12-08T18:59:22.314Z,2.06
2017-12-08T19:01:49.905Z,2.07
2017-12-08T19:04:17.515Z,2.02
2017-12-08T19:06:45.113Z,2.08
2017-12-08T19:09:12.705Z,2.00
2017-12-08T19:11:40.399Z,2.03
2017-12-08T19:14:07.976Z,2.09
2017-12-08T19:16:35.619Z,2.09
2017-12-08T19:19:03.208Z,2.01
2017-12-08T19:21:30.858Z,1.98
2017-12-08T19:23:58.649Z,1.97
2017-12-08T19:26:26.284Z,1.98
2017-12-08T19:28:53.952Z,2.00
2017-12-08T19:31:21.619Z,1.99
2017-12-08T19:33:49.210Z,2.03
2017-12-08T19:36:16.801Z,2.04
2017-12-08T19:38:44.506Z,2.03
2017-12-08T19:41:12.086Z,2.00
2017-12-08T19:43:39.825Z,2.01
2017-12-08T19:46:07.495Z,2.07
2017-12-08T19:48:35.257Z,2.01
2017-12-08T19:51:02.928Z,1.89
2017-12-08T19:53:30.508Z,1.98
2017-12-08T19:55:58.271Z,2.04
2017-12-08T19:58:25.863Z,2.09
2017-12-08T20:00:53.459Z,1.96
2017-12-08T20:03:21.043Z,1.98
2017-12-08T20:05:48.628Z,2.04
2017-12-08T20:08:16.218Z,1.98
2017-12-08T20:10:43.803Z,1.99
2017-12-08T20:13:11.384Z,1.96
2017-12-08T20:15:38.977Z,2.04
2017-12-08T20:18:06.612Z,2.01
2017-12-08T20:20:34.203Z,2.03
2017-12-08T20:23:01.791Z,1.95
2017-12-08T20:25:29.401Z,1.95
2017-12-08T20:27:57.000Z,1.97
2017-12-08T20:30:24.617Z,1.97
2017-12-08T20:32:52.290Z,1.98
2017-12-08T20:35:19.872Z,2.03
2017-12-08T20:37:47.594Z,2.00
2017-12-08T20:40:15.176Z,2.01
2017-12-08T20:42:42.846Z,2.07
2017-12-08T20:45:10.512Z,2.01
2017-12-08T20:47:38.163Z,1.96
2017-12-08T20:50:05.828Z,2.01
2017-12-08T20:52:33.419Z,2.03
2017-12-08T20:55:01.059Z,1.95
2017-12-08T20:57:28.660Z,1.87
2017-12-08T20:59:56.239Z,1.81
2017-12-08T21:02:23.944Z,1.86
2017-12-08T21:04:51.520Z,1.85
2017-12-08T21:07:19.173Z,1.87
2017-12-08T21:09:46.755Z,1.94
2017-12-08T21:12:14.387Z,1.95
2017-12-08T21:14:41.960Z,1.90
2017-12-08T21:17:09.536Z,1.90
2017-12-08T21:19:37.136Z,1.88
2017-12-08T21:22:04.711Z,1.78
2017-12-08T21:24:32.287Z,1.82
2017-12-08T21:26:59.859Z,1.81
2017-12-08T21:29:27.447Z,1.78
2017-12-08T21:31:55.089Z,1.83
2017-12-08T21:34:22.757Z,1.85
2017-12-08T21:36:50.416Z,1.80
2017-12-08T21:39:18.006Z,1.77
2017-12-08T21:41:45.596Z,1.75
2017-12-08T21:44:13.209Z,1.74
2017-12-08T21:46:40.870Z,1.73
2017-12-08T21:49:08.459Z,1.72
2017-12-08T21:51:36.097Z,1.74
2017-12-08T21:54:03.687Z,1.74
2017-12-08T21:56:31.420Z,1.67
2017-12-08T21:58:59.093Z,1.66
2017-12-08T22:01:26.684Z,1.65
2017-12-08T22:03:54.317Z,1.62
2017-12-08T22:06:21.899Z,1.64
2017-12-08T22:08:49.489Z,1.69
2017-12-08T22:11:17.079Z,1.57
2017-12-08T22:13:44.754Z,1.58
2017-12-08T22:16:12.424Z,1.59
2017-12-08T22:18:40.049Z,1.63
2017-12-08T22:21:07.757Z,1.63
2017-12-08T22:23:35.344Z,1.72
2017-12-08T22:26:02.967Z,1.52
2017-12-08T22:28:30.620Z,1.73
2017-12-08T22:30:58.182Z,1.78
2017-12-08T22:33:25.774Z,1.72
2017-12-08T22:35:53.376Z,1.66
2017-12-08T22:38:20.964Z,1.67
2017-12-08T22:40:48.559Z,1.58
2017-12-08T22:43:16.147Z,1.69
2017-12-08T22:45:43.750Z,1.68
2017-12-08T22:48:11.331Z,1.71
2017-12-08T22:50:38.925Z,1.60
2017-12-08T22:53:06.507Z,1.63
2017-12-08T22:55:34.116Z,1.59
2017-12-08T22:58:01.703Z,1.61
2017-12-08T23:00:29.294Z,1.59
2017-12-08T23:02:56.899Z,1.62
2017-12-08T23:05:24.490Z,1.51
2017-12-08T23:07:52.088Z,1.55
2017-12-08T23:10:19.685Z,1.53
2017-12-08T23:12:47.287Z,1.52
2017-12-08T23:15:14.897Z,1.48
2017-12-08T23:17:42.500Z,1.46
2017-12-08T23:20:10.093Z,1.49
2017-12-08T23:22:37.697Z,1.56
2017-12-08T23:25:05.280Z,1.55
2017-12-08T23:27:32.871Z,1.48
2017-12-08T23:30:00.463Z,1.48
2017-12-08T23:32:28.061Z,1.43
2017-12-08T23:34:55.643Z,1.39
2017-12-08T23:37:23.284Z,1.37
2017-12-08T23:39:50.866Z,1.39
2017-12-08T23:42:18.517Z,1.43
2017-12-08T23:44:46.095Z,1.58
2017-12-08T23:47:13.717Z,1.65
2017-12-08T23:49:41.400Z,1.76
2017-12-08T23:52:08.996Z,1.79
2017-12-08T23:54:36.598Z,1.79
2017-12-08T23:57:04.288Z,1.77
2017-12-08T23:59:31.948Z,1.77
